Terminal Aerodrome Forecast
Issued by NWS

Home | Current Version | Previous Version | Text Only | Print | Product List | Glossary On
Versions: 1 2 3 4 5 6 7 8 9 10 11 12 13 14 15 16 17 18
000
FTUS43 KJKL 050532
TAFSJS
TAF
KSJS 050532Z 0506/0606 00000KT 6SM BR SCT002 BKN120
      TEMPO 0508/0511 1/4SM FG VV002
     FM051100 00000KT 1/4SM FG VV002
     FM051300 VRB05KT P6SM SCT050
     FM052300 VRB06KT P6SM VCTS BKN050CB=

USA.gov is the U.S. government's official web portal to all federal, state and local government web resources and services.